sensor_id;sensor_type;location;lat;lon;timestamp;pressure;altitude;pressure_sealevel;temperature;humidity
83273;BME280;73177;51.584;5.188;2023-10-13T00:01:24;101207.16;;;17.81;95.65
83273;BME280;73177;51.584;5.188;2023-10-13T00:03:50;101199.38;;;17.78;96.18
83273;BME280;73177;51.584;5.188;2023-10-13T00:06:19;101194.25;;;17.75;95.80
83273;BME280;73177;51.584;5.188;2023-10-13T00:08:45;101187.41;;;17.71;96.13
83273;BME280;73177;51.584;5.188;2023-10-13T00:11:13;101196.03;;;17.75;96.15
83273;BME280;73177;51.584;5.188;2023-10-13T00:13:39;101196.28;;;17.70;96.15
83273;BME280;73177;51.584;5.188;2023-10-13T00:16:18;101180.63;;;17.66;96.36
83273;BME280;73177;51.584;5.188;2023-10-13T00:18:47;101181.22;;;17.71;96.48
83273;BME280;73177;51.584;5.188;2023-10-13T00:21:13;101180.53;;;17.83;95.86
83273;BME280;73177;51.584;5.188;2023-10-13T00:23:41;101190.81;;;17.73;96.04
83273;BME280;73177;51.584;5.188;2023-10-13T00:26:25;101184.06;;;17.68;96.21
83273;BME280;73177;51.584;5.188;2023-10-13T00:28:56;101192.22;;;17.65;96.72
83273;BME280;73177;51.584;5.188;2023-10-13T00:31:39;101181.50;;;17.66;96.48
83273;BME280;73177;51.584;5.188;2023-10-13T00:34:09;101177.06;;;17.67;96.13
83273;BME280;73177;51.584;5.188;2023-10-13T00:37:00;101169.34;;;17.62;96.64
83273;BME280;73177;51.584;5.188;2023-10-13T00:39:35;101171.03;;;17.63;96.78
83273;BME280;73177;51.584;5.188;2023-10-13T00:42:04;101170.38;;;17.60;96.96
83273;BME280;73177;51.584;5.188;2023-10-13T00:44:33;101161.56;;;17.59;96.65
83273;BME280;73177;51.584;5.188;2023-10-13T00:47:10;101165.75;;;17.63;96.54
83273;BME280;73177;51.584;5.188;2023-10-13T00:49:41;101164.97;;;17.61;96.96
83273;BME280;73177;51.584;5.188;2023-10-13T00:52:09;101167.13;;;17.55;96.61
83273;BME280;73177;51.584;5.188;2023-10-13T00:54:36;101162.75;;;17.54;96.62
83273;BME280;73177;51.584;5.188;2023-10-13T00:57:03;101129.22;;;17.37;96.64
83273;BME280;73177;51.584;5.188;2023-10-13T01:00:00;101145.63;;;17.44;96.96
83273;BME280;73177;51.584;5.188;2023-10-13T01:02:37;101153.22;;;17.50;97.53
83273;BME280;73177;51.584;5.188;2023-10-13T01:05:07;101152.38;;;17.49;97.21
83273;BME280;73177;51.584;5.188;2023-10-13T01:07:35;101147.94;;;17.50;97.25
83273;BME280;73177;51.584;5.188;2023-10-13T01:10:09;101144.38;;;17.51;97.20
83273;BME280;73177;51.584;5.188;2023-10-13T01:12:38;101120.41;;;17.37;97.31
83273;BME280;73177;51.584;5.188;2023-10-13T01:15:03;101138.28;;;17.49;97.92
83273;BME280;73177;51.584;5.188;2023-10-13T01:17:33;101126.88;;;17.47;97.77
83273;BME280;73177;51.584;5.188;2023-10-13T01:19:59;101119.44;;;17.38;97.62
83273;BME280;73177;51.584;5.188;2023-10-13T01:22:25;101117.47;;;17.41;97.81
83273;BME280;73177;51.584;5.188;2023-10-13T01:24:52;101110.81;;;17.34;97.90
83273;BME280;73177;51.584;5.188;2023-10-13T01:27:29;101110.97;;;17.31;98.15
83273;BME280;73177;51.584;5.188;2023-10-13T01:29:54;101118.41;;;17.40;98.50
83273;BME280;73177;51.584;5.188;2023-10-13T01:32:31;101099.06;;;17.38;97.80
83273;BME280;73177;51.584;5.188;2023-10-13T01:34:56;101100.03;;;17.37;98.08
83273;BME280;73177;51.584;5.188;2023-10-13T01:37:23;101083.63;;;17.31;98.11
83273;BME280;73177;51.584;5.188;2023-10-13T01:39:48;101091.97;;;17.39;97.77
83273;BME280;73177;51.584;5.188;2023-10-13T01:42:15;101088.66;;;17.35;97.99
83273;BME280;73177;51.584;5.188;2023-10-13T01:44:49;101079.25;;;17.30;98.10
83273;BME280;73177;51.584;5.188;2023-10-13T01:47:15;101075.72;;;17.29;97.97
83273;BME280;73177;51.584;5.188;2023-10-13T01:49:41;101084.28;;;17.34;97.77
83273;BME280;73177;51.584;5.188;2023-10-13T01:52:08;101080.88;;;17.32;98.18
83273;BME280;73177;51.584;5.188;2023-10-13T01:54:37;101070.34;;;17.31;98.11
83273;BME280;73177;51.584;5.188;2023-10-13T01:57:08;101065.63;;;17.36;97.85
83273;BME280;73177;51.584;5.188;2023-10-13T01:59:38;101064.69;;;17.37;97.95
83273;BME280;73177;51.584;5.188;2023-10-13T02:02:12;101060.31;;;17.36;98.00
83273;BME280;73177;51.584;5.188;2023-10-13T02:04:44;101045.34;;;17.35;98.25
83273;BME280;73177;51.584;5.188;2023-10-13T02:07:25;101045.63;;;17.30;97.97
83273;BME280;73177;51.584;5.188;2023-10-13T02:09:57;101054.25;;;17.34;98.33
83273;BME280;73177;51.584;5.188;2023-10-13T02:12:23;101054.25;;;17.34;98.46
83273;BME280;73177;51.584;5.188;2023-10-13T02:15:14;101058.69;;;17.33;98.58
83273;BME280;73177;51.584;5.188;2023-10-13T02:17:47;101053.59;;;17.30;98.28
83273;BME280;73177;51.584;5.188;2023-10-13T02:20:17;101035.94;;;17.29;98.43
83273;BME280;73177;51.584;5.188;2023-10-13T02:22:43;101032.09;;;17.35;98.29
83273;BME280;73177;51.584;5.188;2023-10-13T02:25:18;101031.50;;;17.30;98.70
83273;BME280;73177;51.584;5.188;2023-10-13T02:28:04;101026.84;;;17.33;98.73
83273;BME280;73177;51.584;5.188;2023-10-13T02:30:44;101013.19;;;17.25;98.87
83273;BME280;73177;51.584;5.188;2023-10-13T02:33:15;101014.81;;;17.28;98.59
83273;BME280;73177;51.584;5.188;2023-10-13T02:35:46;100996.63;;;17.22;98.86
83273;BME280;73177;51.584;5.188;2023-10-13T02:38:21;101001.41;;;17.31;99.02
83273;BME280;73177;51.584;5.188;2023-10-13T02:41:14;100989.53;;;17.36;98.91
83273;BME280;73177;51.584;5.188;2023-10-13T02:43:44;100986.03;;;17.36;99.13
83273;BME280;73177;51.584;5.188;2023-10-13T02:46:10;100978.28;;;17.33;98.95
83273;BME280;73177;51.584;5.188;2023-10-13T02:48:35;100969.28;;;17.35;98.85
83273;BME280;73177;51.584;5.188;2023-10-13T02:51:07;100970.13;;;17.36;99.20
83273;BME280;73177;51.584;5.188;2023-10-13T02:53:46;100967.38;;;17.37;99.01
83273;BME280;73177;51.584;5.188;2023-10-13T02:56:15;100963.88;;;17.37;99.29
83273;BME280;73177;51.584;5.188;2023-10-13T02:58:47;100951.28;;;17.40;98.71
83273;BME280;73177;51.584;5.188;2023-10-13T03:01:19;100949.31;;;17.44;99.08
83273;BME280;73177;51.584;5.188;2023-10-13T03:03:49;100946.72;;;17.42;98.83
83273;BME280;73177;51.584;5.188;2023-10-13T03:06:18;100944.84;;;17.44;98.99
83273;BME280;73177;51.584;5.188;2023-10-13T03:08:47;100940.38;;;17.45;98.99
83273;BME280;73177;51.584;5.188;2023-10-13T03:11:12;100936.22;;;17.41;99.01
83273;BME280;73177;51.584;5.188;2023-10-13T03:13:39;100929.88;;;17.43;98.93
83273;BME280;73177;51.584;5.188;2023-10-13T03:16:16;100921.34;;;17.38;99.38
83273;BME280;73177;51.584;5.188;2023-10-13T03:18:48;100922.66;;;17.45;99.37
83273;BME280;73177;51.584;5.188;2023-10-13T03:21:22;100902.28;;;17.32;99.36
83273;BME280;73177;51.584;5.188;2023-10-13T03:23:56;100912.91;;;17.46;99.58
83273;BME280;73177;51.584;5.188;2023-10-13T03:26:21;100897.09;;;17.44;99.37
83273;BME280;73177;51.584;5.188;2023-10-13T03:28:47;100896.03;;;17.47;99.62
83273;BME280;73177;51.584;5.188;2023-10-13T03:31:22;100897.50;;;17.52;99.54
83273;BME280;73177;51.584;5.188;2023-10-13T03:33:53;100893.69;;;17.56;99.60
83273;BME280;73177;51.584;5.188;2023-10-13T03:36:24;100866.59;;;17.51;99.67
83273;BME280;73177;51.584;5.188;2023-10-13T03:39:13;100883.09;;;17.56;99.85
83273;BME280;73177;51.584;5.188;2023-10-13T03:41:39;100870.56;;;17.58;99.41
83273;BME280;73177;51.584;5.188;2023-10-13T03:44:05;100875.06;;;17.58;99.75
83273;BME280;73177;51.584;5.188;2023-10-13T03:46:38;100872.28;;;17.59;100.00
83273;BME280;73177;51.584;5.188;2023-10-13T03:49:07;100869.53;;;17.61;100.00
83273;BME280;73177;51.584;5.188;2023-10-13T03:51:38;100859.66;;;17.63;100.00
83273;BME280;73177;51.584;5.188;2023-10-13T03:54:04;100836.47;;;17.66;100.00
83273;BME280;73177;51.584;5.188;2023-10-13T03:56:32;100832.75;;;17.69;100.00
83273;BME280;73177;51.584;5.188;2023-10-13T03:59:04;100830.28;;;17.80;100.00
83273;BME280;73177;51.584;5.188;2023-10-13T04:01:44;100834.25;;;17.87;100.00
83273;BME280;73177;51.584;5.188;2023-10-13T04:04:14;100813.28;;;17.83;100.00
83273;BME280;73177;51.584;5.188;2023-10-13T04:06:58;100821.72;;;17.89;100.00
83273;BME280;73177;51.584;5.188;2023-10-13T04:09:39;100823.66;;;18.00;100.00
83273;BME280;73177;51.584;5.188;2023-10-13T04:12:06;100807.72;;;18.00;100.00
83273;BME280;73177;51.584;5.188;2023-10-13T04:14:42;100811.59;;;18.08;100.00
83273;BME280;73177;51.584;5.188;2023-10-13T04:17:24;100802.13;;;18.04;100.00
83273;BME280;73177;51.584;5.188;2023-10-13T04:19:53;100809.59;;;18.12;100.00
83273;BME280;73177;51.584;5.188;2023-10-13T04:22:35;100809.59;;;18.12;100.00
83273;BME280;73177;51.584;5.188;2023-10-13T04:25:27;100795.47;;;18.11;100.00
83273;BME280;73177;51.584;5.188;2023-10-13T04:28:09;100804.53;;;18.21;100.00
83273;BME280;73177;51.584;5.188;2023-10-13T04:30:42;100802.41;;;18.26;100.00
83273;BME280;73177;51.584;5.188;2023-10-13T04:33:18;100796.78;;;18.31;100.00
83273;BME280;73177;51.584;5.188;2023-10-13T04:36:11;100794.25;;;18.29;100.00
83273;BME280;73177;51.584;5.188;2023-10-13T04:38:57;100800.75;;;18.38;100.00
83273;BME280;73177;51.584;5.188;2023-10-13T04:41:26;100787.69;;;18.35;100.00
83273;BME280;73177;51.584;5.188;2023-10-13T04:44:12;100796.84;;;18.43;100.00
83273;BME280;73177;51.584;5.188;2023-10-13T04:46:58;100796.16;;;18.40;100.00
83273;BME280;73177;51.584;5.188;2023-10-13T04:49:23;100809.09;;;18.46;100.00
83273;BME280;73177;51.584;5.188;2023-10-13T04:52:15;100788.31;;;18.38;100.00
83273;BME280;73177;51.584;5.188;2023-10-13T04:55:01;100790.78;;;18.41;100.00
83273;BME280;73177;51.584;5.188;2023-10-13T04:57:45;100756.63;;;18.35;100.00
83273;BME280;73177;51.584;5.188;2023-10-13T05:00:11;100781.47;;;18.48;100.00
83273;BME280;73177;51.584;5.188;2023-10-13T05:02:39;100775.19;;;18.49;100.00
83273;BME280;73177;51.584;5.188;2023-10-13T05:05:13;100776.97;;;18.49;99.38
83273;BME280;73177;51.584;5.188;2023-10-13T05:07:38;100778.69;;;18.50;100.00
83273;BME280;73177;51.584;5.188;2023-10-13T05:10:23;100752.72;;;18.41;100.00
83273;BME280;73177;51.584;5.188;2023-10-13T05:13:07;100720.44;;;18.47;100.00
83273;BME280;73177;51.584;5.188;2023-10-13T05:15:51;100711.72;;;18.45;100.00
83273;BME280;73177;51.584;5.188;2023-10-13T05:18:35;100715.41;;;18.42;100.00
83273;BME280;73177;51.584;5.188;2023-10-13T05:21:19;100710.50;;;18.36;100.00
83273;BME280;73177;51.584;5.188;2023-10-13T05:24:04;100721.13;;;18.36;100.00
83273;BME280;73177;51.584;5.188;2023-10-13T05:26:48;100722.09;;;18.35;100.00
83273;BME280;73177;51.584;5.188;2023-10-13T05:29:33;100721.13;;;18.36;100.00
83273;BME280;73177;51.584;5.188;2023-10-13T05:32:25;100727.00;;;18.41;100.00
83273;BME280;73177;51.584;5.188;2023-10-13T05:35:09;100715.72;;;18.38;100.00
83273;BME280;73177;51.584;5.188;2023-10-13T05:37:53;100711.25;;;18.38;100.00
83273;BME280;73177;51.584;5.188;2023-10-13T05:40:37;100699.16;;;18.34;100.00
83273;BME280;73177;51.584;5.188;2023-10-13T05:43:21;100695.44;;;18.37;100.00
83273;BME280;73177;51.584;5.188;2023-10-13T05:46:06;100701.91;;;18.33;100.00
83273;BME280;73177;51.584;5.188;2023-10-13T05:48:34;100693.09;;;18.32;100.00
83273;BME280;73177;51.584;5.188;2023-10-13T05:51:17;100674.38;;;18.34;99.97
83273;BME280;73177;51.584;5.188;2023-10-13T05:54:05;100696.28;;;18.37;100.00
83273;BME280;73177;51.584;5.188;2023-10-13T05:56:44;100687.53;;;18.35;100.00
83273;BME280;73177;51.584;5.188;2023-10-13T05:59:28;100691.47;;;18.42;100.00
83273;BME280;73177;51.584;5.188;2023-10-13T06:02:18;100688.19;;;18.39;100.00
83273;BME280;73177;51.584;5.188;2023-10-13T06:05:09;100680.22;;;18.39;100.00
83273;BME280;73177;51.584;5.188;2023-10-13T06:07:54;100685.53;;;18.39;100.00
83273;BME280;73177;51.584;5.188;2023-10-13T06:10:39;100673.41;;;18.22;100.00
83273;BME280;73177;51.584;5.188;2023-10-13T06:13:23;100694.56;;;18.36;100.00
83273;BME280;73177;51.584;5.188;2023-10-13T06:16:12;100683.94;;;18.36;99.77
83273;BME280;73177;51.584;5.188;2023-10-13T06:18:56;100697.97;;;18.38;99.64
83273;BME280;73177;51.584;5.188;2023-10-13T06:21:40;100694.47;;;18.38;99.49
83273;BME280;73177;51.584;5.188;2023-10-13T06:24:25;100685.66;;;18.37;99.38
83273;BME280;73177;51.584;5.188;2023-10-13T06:27:08;100685.84;;;18.34;99.53
83273;BME280;73177;51.584;5.188;2023-10-13T06:29:53;100666.41;;;18.34;98.92
83273;BME280;73177;51.584;5.188;2023-10-13T06:32:22;100644.72;;;18.27;99.03
83273;BME280;73177;51.584;5.188;2023-10-13T06:34:54;100639.84;;;18.21;98.63
83273;BME280;73177;51.584;5.188;2023-10-13T06:37:24;100656.84;;;18.31;98.89
83273;BME280;73177;51.584;5.188;2023-10-13T06:39:53;100651.63;;;18.30;99.03
83273;BME280;73177;51.584;5.188;2023-10-13T06:42:22;100647.28;;;18.29;98.96
83273;BME280;73177;51.584;5.188;2023-10-13T06:44:53;100631.31;;;18.29;98.70
83273;BME280;73177;51.584;5.188;2023-10-13T06:47:19;100626.34;;;18.24;99.06
83273;BME280;73177;51.584;5.188;2023-10-13T06:49:45;100635.03;;;18.26;99.20
83273;BME280;73177;51.584;5.188;2023-10-13T06:52:14;100620.81;;;18.27;99.02
83273;BME280;73177;51.584;5.188;2023-10-13T06:54:41;100618.91;;;18.29;99.19
83273;BME280;73177;51.584;5.188;2023-10-13T06:57:08;100622.28;;;18.31;98.96
83273;BME280;73177;51.584;5.188;2023-10-13T06:59:39;100617.72;;;18.33;99.21
83273;BME280;73177;51.584;5.188;2023-10-13T07:02:06;100624.00;;;18.32;99.47
83273;BME280;73177;51.584;5.188;2023-10-13T07:04:34;100621.91;;;18.37;99.44
83273;BME280;73177;51.584;5.188;2023-10-13T07:07:04;100615.47;;;18.40;99.13
83273;BME280;73177;51.584;5.188;2023-10-13T07:09:31;100597.22;;;18.35;99.30
83273;BME280;73177;51.584;5.188;2023-10-13T07:12:00;100588.41;;;18.35;99.41
83273;BME280;73177;51.584;5.188;2023-10-13T07:14:32;100596.88;;;18.40;99.44
83273;BME280;73177;51.584;5.188;2023-10-13T07:17:04;100595.66;;;18.45;99.28
83273;BME280;73177;51.584;5.188;2023-10-13T07:19:31;100587.16;;;18.53;99.02
83273;BME280;73177;51.584;5.188;2023-10-13T07:21:57;100589.34;;;18.59;98.91
83273;BME280;73177;51.584;5.188;2023-10-13T07:24:46;100583.72;;;18.64;98.40
83273;BME280;73177;51.584;5.188;2023-10-13T07:27:21;100597.81;;;18.77;98.12
83273;BME280;73177;51.584;5.188;2023-10-13T07:29:55;100597.16;;;18.86;96.78
83273;BME280;73177;51.584;5.188;2023-10-13T07:32:42;100593.84;;;18.95;95.74
83273;BME280;73177;51.584;5.188;2023-10-13T07:35:12;100588.09;;;19.01;96.41
83273;BME280;73177;51.584;5.188;2023-10-13T07:37:38;100588.69;;;19.04;96.13
83273;BME280;73177;51.584;5.188;2023-10-13T07:40:09;100593.69;;;19.09;95.74
83273;BME280;73177;51.584;5.188;2023-10-13T07:43:07;100581.69;;;19.03;95.47
83273;BME280;73177;51.584;5.188;2023-10-13T07:45:40;100593.16;;;19.04;95.38
83273;BME280;73177;51.584;5.188;2023-10-13T07:48:09;100578.47;;;19.11;94.99
83273;BME280;73177;51.584;5.188;2023-10-13T07:50:44;100570.47;;;19.11;95.01
83273;BME280;73177;51.584;5.188;2023-10-13T07:53:11;100573.13;;;19.11;95.04
83273;BME280;73177;51.584;5.188;2023-10-13T07:55:48;100564.94;;;19.14;94.04
83273;BME280;73177;51.584;5.188;2023-10-13T07:58:20;100558.88;;;19.12;93.97
83273;BME280;73177;51.584;5.188;2023-10-13T08:00:45;100582.31;;;19.31;93.93
83273;BME280;73177;51.584;5.188;2023-10-13T08:03:11;100572.41;;;19.33;92.69
83273;BME280;73177;51.584;5.188;2023-10-13T08:05:42;100576.47;;;19.49;92.27
83273;BME280;73177;51.584;5.188;2023-10-13T08:08:24;100579.09;;;19.62;91.07
83273;BME280;73177;51.584;5.188;2023-10-13T08:11:09;100577.56;;;19.81;90.19
83273;BME280;73177;51.584;5.188;2023-10-13T08:13:54;100585.56;;;19.92;91.06
83273;BME280;73177;51.584;5.188;2023-10-13T08:16:20;100574.44;;;19.87;90.85
83273;BME280;73177;51.584;5.188;2023-10-13T08:18:50;100578.44;;;19.93;89.77
83273;BME280;73177;51.584;5.188;2023-10-13T08:21:16;100559.44;;;19.98;89.22
83273;BME280;73177;51.584;5.188;2023-10-13T08:23:51;100551.47;;;20.09;89.06
83273;BME280;73177;51.584;5.188;2023-10-13T08:26:20;100553.63;;;20.04;88.58
83273;BME280;73177;51.584;5.188;2023-10-13T08:29:04;100542.97;;;20.04;88.33
83273;BME280;73177;51.584;5.188;2023-10-13T08:31:59;100544.09;;;20.01;88.09
83273;BME280;73177;51.584;5.188;2023-10-13T08:34:39;100534.97;;;20.04;88.28
83273;BME280;73177;51.584;5.188;2023-10-13T08:37:08;100532.94;;;20.18;85.61
83273;BME280;73177;51.584;5.188;2023-10-13T08:39:50;100546.53;;;20.26;86.17
83273;BME280;73177;51.584;5.188;2023-10-13T08:42:39;100547.13;;;20.19;85.69
83273;BME280;73177;51.584;5.188;2023-10-13T08:45:15;100528.69;;;20.05;86.73
83273;BME280;73177;51.584;5.188;2023-10-13T08:47:57;100546.41;;;20.17;87.01
83273;BME280;73177;51.584;5.188;2023-10-13T08:50:49;100539.66;;;20.24;86.34
83273;BME280;73177;51.584;5.188;2023-10-13T08:53:22;100533.22;;;20.37;86.07
83273;BME280;73177;51.584;5.188;2023-10-13T08:58:34;100541.31;;;20.47;84.77
83273;BME280;73177;51.584;5.188;2023-10-13T09:01:31;100533.94;;;20.50;85.42
83273;BME280;73177;51.584;5.188;2023-10-13T09:04:06;100531.84;;;20.54;83.79
83273;BME280;73177;51.584;5.188;2023-10-13T09:07:02;100532.00;;;20.41;83.44
83273;BME280;73177;51.584;5.188;2023-10-13T09:12:12;100533.47;;;20.23;85.45
83273;BME280;73177;51.584;5.188;2023-10-13T09:14:57;100515.13;;;20.19;85.52
83273;BME280;73177;51.584;5.188;2023-10-13T09:17:50;100520.25;;;20.22;85.26
83273;BME280;73177;51.584;5.188;2023-10-13T09:20:31;100486.06;;;20.16;84.12
83273;BME280;73177;51.584;5.188;2023-10-13T09:23:13;100506.31;;;20.40;83.80
83273;BME280;73177;51.584;5.188;2023-10-13T09:26:16;100482.22;;;20.42;84.12
83273;BME280;73177;51.584;5.188;2023-10-13T09:28:56;100477.97;;;20.39;82.79
83273;BME280;73177;51.584;5.188;2023-10-13T09:31:28;100435.41;;;20.38;83.14
83273;BME280;73177;51.584;5.188;2023-10-13T09:34:02;100430.25;;;20.68;80.84
83273;BME280;73177;51.584;5.188;2023-10-13T09:36:58;100511.22;;;21.21;80.32
83273;BME280;73177;51.584;5.188;2023-10-13T09:39:31;100429.06;;;20.61;80.03
83273;BME280;73177;51.584;5.188;2023-10-13T09:42:13;100505.69;;;21.02;81.21
83273;BME280;73177;51.584;5.188;2023-10-13T09:44:54;100493.00;;;20.94;80.09
83273;BME280;73177;51.584;5.188;2023-10-13T09:47:33;100443.66;;;20.89;79.72
83273;BME280;73177;51.584;5.188;2023-10-13T09:50:02;100416.63;;;21.14;78.41
83273;BME280;73177;51.584;5.188;2023-10-13T09:55:35;100411.94;;;21.06;78.65
83273;BME280;73177;51.584;5.188;2023-10-13T09:58:08;100418.44;;;21.13;78.54
83273;BME280;73177;51.584;5.188;2023-10-13T10:00:48;100412.66;;;21.08;78.06
83273;BME280;73177;51.584;5.188;2023-10-13T10:03:23;100450.34;;;21.15;78.10
83273;BME280;73177;51.584;5.188;2023-10-13T10:06:07;100425.31;;;20.95;77.82
83273;BME280;73177;51.584;5.188;2023-10-13T10:08:50;100478.16;;;21.12;79.33
83273;BME280;73177;51.584;5.188;2023-10-13T10:11:42;100422.34;;;20.78;78.77
83273;BME280;73177;51.584;5.188;2023-10-13T10:17:09;100408.28;;;20.76;78.19
83273;BME280;73177;51.584;5.188;2023-10-13T10:19:53;100409.00;;;20.78;78.23
83273;BME280;73177;51.584;5.188;2023-10-13T10:22:33;100438.22;;;21.11;77.74
83273;BME280;73177;51.584;5.188;2023-10-13T10:25:04;100434.88;;;20.98;78.18
83273;BME280;73177;51.584;5.188;2023-10-13T10:27:33;100419.63;;;21.20;76.58
83273;BME280;73177;51.584;5.188;2023-10-13T10:30:02;100457.38;;;21.37;76.33
83273;BME280;73177;51.584;5.188;2023-10-13T10:32:53;100379.25;;;21.14;75.83
83273;BME280;73177;51.584;5.188;2023-10-13T10:35:28;100399.38;;;21.39;76.16
83273;BME280;73177;51.584;5.188;2023-10-13T10:38:18;100386.34;;;21.24;75.23
83273;BME280;73177;51.584;5.188;2023-10-13T10:41:06;100378.72;;;21.20;74.55
83273;BME280;73177;51.584;5.188;2023-10-13T10:43:44;100446.94;;;21.75;76.14
83273;BME280;73177;51.584;5.188;2023-10-13T10:46:33;100446.06;;;21.74;74.97
83273;BME280;73177;51.584;5.188;2023-10-13T10:49:20;100419.38;;;21.44;73.87
83273;BME280;73177;51.584;5.188;2023-10-13T10:52:11;100436.59;;;21.40;75.07
83273;BME280;73177;51.584;5.188;2023-10-13T10:54:47;100372.84;;;20.85;77.22
83273;BME280;73177;51.584;5.188;2023-10-13T10:57:20;100401.09;;;20.87;78.07
83273;BME280;73177;51.584;5.188;2023-10-13T10:59:46;100402.31;;;20.83;78.14
83273;BME280;73177;51.584;5.188;2023-10-13T11:02:18;100449.75;;;21.11;78.23
83273;BME280;73177;51.584;5.188;2023-10-13T11:04:52;100452.13;;;20.94;77.67
83273;BME280;73177;51.584;5.188;2023-10-13T11:07:33;100435.84;;;20.97;78.82
83273;BME280;73177;51.584;5.188;2023-10-13T11:10:13;100360.34;;;20.33;81.19
83273;BME280;73177;51.584;5.188;2023-10-13T11:15:56;100312.50;;;20.20;78.57
83273;BME280;73177;51.584;5.188;2023-10-13T11:18:33;100317.94;;;20.30;78.57
83273;BME280;73177;51.584;5.188;2023-10-13T11:21:03;100312.56;;;20.41;78.40
83273;BME280;73177;51.584;5.188;2023-10-13T11:23:33;100353.63;;;20.70;76.88
83273;BME280;73177;51.584;5.188;2023-10-13T11:26:09;100378.19;;;20.85;77.70
83273;BME280;73177;51.584;5.188;2023-10-13T11:28:38;100398.34;;;21.30;77.67
83273;BME280;73177;51.584;5.188;2023-10-13T11:31:03;100301.06;;;21.02;75.29
83273;BME280;73177;51.584;5.188;2023-10-13T11:33:44;100337.00;;;21.40;73.38
83273;BME280;73177;51.584;5.188;2023-10-13T11:36:14;100365.88;;;21.85;73.45
83273;BME280;73177;51.584;5.188;2023-10-13T11:38:42;100358.63;;;21.67;75.21
83273;BME280;73177;51.584;5.188;2023-10-13T11:41:13;100365.53;;;21.79;74.90
83273;BME280;73177;51.584;5.188;2023-10-13T11:43:49;100361.09;;;21.89;72.87
83273;BME280;73177;51.584;5.188;2023-10-13T11:46:16;100350.16;;;22.01;73.11
83273;BME280;73177;51.584;5.188;2023-10-13T11:48:43;100344.69;;;22.13;71.52
83273;BME280;73177;51.584;5.188;2023-10-13T11:51:14;100347.94;;;22.16;70.56
83273;BME280;73177;51.584;5.188;2023-10-13T11:53:44;100347.81;;;22.27;71.46
83273;BME280;73177;51.584;5.188;2023-10-13T11:56:19;100346.72;;;22.30;70.10
83273;BME280;73177;51.584;5.188;2023-10-13T11:58:49;100339.94;;;22.35;69.98
83273;BME280;73177;51.584;5.188;2023-10-13T12:01:15;100336.16;;;22.38;71.23
83273;BME280;73177;51.584;5.188;2023-10-13T12:03:48;100344.75;;;22.51;68.23
83273;BME280;73177;51.584;5.188;2023-10-13T12:06:33;100311.66;;;22.52;66.63
83273;BME280;73177;51.584;5.188;2023-10-13T12:11:46;100326.16;;;22.59;66.70
83273;BME280;73177;51.584;5.188;2023-10-13T12:14:13;100320.81;;;22.59;68.04
83273;BME280;73177;51.584;5.188;2023-10-13T12:16:43;100325.63;;;22.65;68.42
83273;BME280;73177;51.584;5.188;2023-10-13T12:19:14;100310.00;;;22.70;68.01
83273;BME280;73177;51.584;5.188;2023-10-13T12:21:42;100294.38;;;22.75;67.53
83273;BME280;73177;51.584;5.188;2023-10-13T12:24:09;100318.97;;;22.88;64.89
83273;BME280;73177;51.584;5.188;2023-10-13T12:26:47;100330.09;;;23.03;65.02
83273;BME280;73177;51.584;5.188;2023-10-13T12:29:13;100311.97;;;22.87;65.63
83273;BME280;73177;51.584;5.188;2023-10-13T12:31:48;100299.16;;;22.72;66.19
83273;BME280;73177;51.584;5.188;2023-10-13T12:34:26;100307.84;;;22.83;64.71
83273;BME280;73177;51.584;5.188;2023-10-13T12:37:12;100294.34;;;22.94;64.54
83273;BME280;73177;51.584;5.188;2023-10-13T12:39:57;100297.84;;;22.95;65.33
83273;BME280;73177;51.584;5.188;2023-10-13T12:42:41;100304.13;;;23.13;63.45
83273;BME280;73177;51.584;5.188;2023-10-13T12:45:25;100291.41;;;23.24;61.85
83273;BME280;73177;51.584;5.188;2023-10-13T12:48:08;100296.91;;;23.23;63.69
83273;BME280;73177;51.584;5.188;2023-10-13T12:50:52;100286.81;;;23.17;64.47
83273;BME280;73177;51.584;5.188;2023-10-13T12:53:33;100298.66;;;23.14;63.63
83273;BME280;73177;51.584;5.188;2023-10-13T12:55:58;100289.94;;;23.03;64.84
83273;BME280;73177;51.584;5.188;2023-10-13T12:58:24;100300.47;;;23.14;64.21
83273;BME280;73177;51.584;5.188;2023-10-13T13:00:52;100299.09;;;23.10;64.01
83273;BME280;73177;51.584;5.188;2023-10-13T13:03:24;100289.63;;;23.06;63.13
83273;BME280;73177;51.584;5.188;2023-10-13T13:05:54;100286.84;;;22.98;64.69
83273;BME280;73177;51.584;5.188;2023-10-13T13:08:21;100289.59;;;23.15;63.49
83273;BME280;73177;51.584;5.188;2023-10-13T13:10:48;100288.28;;;23.29;62.50
83273;BME280;73177;51.584;5.188;2023-10-13T13:13:13;100282.25;;;23.27;63.00
83273;BME280;73177;51.584;5.188;2023-10-13T13:15:41;100280.53;;;23.35;63.14
83273;BME280;73177;51.584;5.188;2023-10-13T13:18:07;100268.84;;;23.27;62.40
83273;BME280;73177;51.584;5.188;2023-10-13T13:20:39;100268.06;;;23.17;61.89
83273;BME280;73177;51.584;5.188;2023-10-13T13:23:08;100290.03;;;23.20;62.33
83273;BME280;73177;51.584;5.188;2023-10-13T13:25:37;100282.59;;;23.14;62.53
83273;BME280;73177;51.584;5.188;2023-10-13T13:28:08;100282.59;;;23.05;63.53
83273;BME280;73177;51.584;5.188;2023-10-13T13:30:35;100282.03;;;23.01;62.16
83273;BME280;73177;51.584;5.188;2023-10-13T13:33:02;100284.88;;;23.00;62.95
83273;BME280;73177;51.584;5.188;2023-10-13T13:35:37;100274.72;;;23.03;63.39
83273;BME280;73177;51.584;5.188;2023-10-13T13:38:03;100280.94;;;22.94;63.12
83273;BME280;73177;51.584;5.188;2023-10-13T13:40:38;100279.25;;;22.93;63.88
83273;BME280;73177;51.584;5.188;2023-10-13T13:43:03;100285.44;;;23.03;63.24
83273;BME280;73177;51.584;5.188;2023-10-13T13:45:29;100282.75;;;23.03;62.93